Etusivu
METAR-TAF:

METAR-TAF

Lentoasemat :

Andøya, Norja

Leveyspiiri: 69-18N, Pituuspiiri: 016-09E, korkeus merenpinnasta: 1 m

Tämänhetkinen sää

Tämä raportti tehtiin 18 minuuttia sitten, kello 01.50 UTC
Tuuli 9 kn etelästä, vaihdellen kaakon ja etelän/lounaan välillä
Lämpötila 2°C
Kosteus 69%
Ilmanpaine 990 hPa
Näkyvyys 10 km tai enemmän

METAR: ENAN 250150Z AUTO 17009KT 140V210 9999 NCD 02/M03 Q0990

Aika: 03:08 (02:08 UTC)

Sääennuste

Ennuste voimassa 25. päivästä klo 00 UTC - 25. päivään klo 24 UTC
Tuuli 15 kn etelästä/kaakosta
Näkyvyys 10 km tai enemmän
Hajanaisia pilviä 2500 ft:n korkeudessa
Hajonneita pilviä 4000 ft:n korkeudessa
Ajoittain
25. päivästä klo 06 UTC - 25. päivään klo 24 UTC
Näkyvyys: 4000 m
1200 ft:n korkeudessa
heikkoja vesikuuroja, lumisadetta

TAF: ENAN 2500/2524 15015KT 9999 SCT025 BKN040 TEMPO 2506/2524 4000 -SHRASN VV012

Säähavainnot ja -ennusteet yli 4000 lentoasemalta (METAR- ja TAF-raportit).

Käytössä olevat sääasemat on merkitty karttaan keltaisilla ja punaisilla pisteillä.

Aseta hiiri pisteen päälle nähdäksesi sääaseman nimen.

Klikkaa sitten nähdäksesi säähavainnot ja -ennusteet.

Kartan vaihtaminen: klikkaa mustalla rastilla varustettuja vihreitä pisteitä, niin voit zoomata sisään; viivalla varustettua vihreää pistettä, niin voit zoomata ulos tai vihreitä nuolia, niin pääset viereisille kartoille.


METAR-TAF: